Frazer, Pennsylvania
Current Conditions -  °F | °C
As of 4:54 AM on Wednesday 26 Nov 2014 (Local Time) from KPTW Reporting Station
Overcast Overcast  
Wind Chill: 37°   Ceiling: 6000
Heat Index: 43°   Visibility: 10mi
Dew Point: 31°   Wind: 12mph
Humidity: 62%   Direction: 360°N
Pressure: 30.11"   Gusts: NA
Location:  40.0462°N, 75.5339°W
Report Text: KPTW 260954Z AUTO 36010KT 10SM OVC060 06/M01 A3011 RMK AO2 SLP193 T00611006
Loading
Personal Weather Stations






























Interactive Weather Map New forecast layout! Learn more

10-Day Weather Forecast

Advertisements
Track Severe Weather on mobile